Time;durP1;ratioP1;P1;durP2;ratioP2;P2;SDS_P1;SDS_P2;PMS_P1;PMS_P2;Temp;Humidity;BMP_temperature;BMP_pressure;BME280_temperature;BME280_humidity;BME280_pressure;Samples;Min_cycle;Max_cycle;Signal;HPM_P1;HPM_P2
2023/09/06 00:00:32;;;;;;;10.45;8.00;;;20.20;99.90;;;;;;4974809;28;20053;-85
2023/09/06 00:03:00;;;;;;;12.70;7.68;;;20.20;99.90;;;;;;4979512;28;20117;-84
2023/09/06 00:05:26;;;;;;;12.05;9.18;;;20.20;99.90;;;;;;4979785;28;20085;-84
2023/09/06 00:07:52;;;;;;;8.93;6.63;;;20.20;99.90;;;;;;4975363;28;20027;-84
2023/09/06 00:10:18;;;;;;;10.63;9.05;;;20.10;99.90;;;;;;4983800;28;20117;-84
2023/09/06 00:12:45;;;;;;;11.18;8.70;;;20.10;99.90;;;;;;4983144;28;20048;-84
2023/09/06 00:15:12;;;;;;;9.57;6.95;;;20.10;99.90;;;;;;4982259;28;20038;-84
2023/09/06 00:17:38;;;;;;;11.57;9.15;;;20.00;99.90;;;;;;4972444;28;20105;-84
2023/09/06 00:22:53;;;;;;;10.00;8.25;;;19.90;99.90;;;;;;4988948;28;20179;-84
2023/09/06 00:25:19;;;;;;;8.45;6.90;;;19.80;99.90;;;;;;5005358;28;20071;-84
2023/09/06 00:27:44;;;;;;;12.77;8.07;;;19.80;99.90;;;;;;4968044;28;20073;-84
2023/09/06 00:30:10;;;;;;;12.40;9.23;;;19.80;99.90;;;;;;4991383;28;20050;-84
2023/09/06 00:32:36;;;;;;;10.63;8.13;;;19.60;99.90;;;;;;4981632;28;20043;-84
2023/09/06 00:35:02;;;;;;;11.50;9.75;;;19.70;99.90;;;;;;4966700;28;20057;-84
2023/09/06 00:37:38;;;;;;;13.07;9.70;;;19.70;99.90;;;;;;4968951;28;20047;-84
2023/09/06 00:40:12;;;;;;;12.95;9.85;;;19.70;99.90;;;;;;4972435;28;20692;-84
2023/09/06 00:42:38;;;;;;;;;;;19.70;99.90;;;;;;4974339;28;20181;-84
2023/09/06 00:45:04;;;;;;;12.25;8.50;;;19.70;99.90;;;;;;4977636;28;20046;-84
2023/09/06 00:47:30;;;;;;;11.82;9.65;;;19.70;99.90;;;;;;4986695;28;20039;-84
2023/09/06 00:49:56;;;;;;;10.90;8.63;;;19.70;99.90;;;;;;4979540;28;20050;-84
2023/09/06 00:52:22;;;;;;;12.85;10.00;;;19.70;99.90;;;;;;4975770;28;20077;-84
2023/09/06 00:54:48;;;;;;;13.90;9.93;;;19.70;99.90;;;;;;4976159;28;20046;-84
2023/09/06 00:57:13;;;;;;;15.45;11.55;;;19.70;99.90;;;;;;4981200;28;20124;-84
2023/09/06 00:59:41;;;;;;;15.02;11.15;;;19.70;99.90;;;;;;4974395;28;20552;-84
2023/09/06 01:02:08;;;;;;;13.70;9.60;;;19.70;99.90;;;;;;4999752;28;20042;-84
2023/09/06 01:04:33;;;;;;;11.55;10.15;;;19.70;99.90;;;;;;4986637;28;20493;-84
2023/09/06 01:07:02;;;;;;;13.15;9.30;;;19.60;99.90;;;;;;4982292;28;20034;-84
2023/09/06 01:09:31;;;;;;;11.63;9.68;;;19.60;99.90;;;;;;4965768;28;20038;-84
2023/09/06 01:11:57;;;;;;;13.52;11.35;;;19.60;99.90;;;;;;4985157;28;20098;-83
2023/09/06 01:14:22;;;;;;;13.30;11.07;;;19.60;99.90;;;;;;4984294;28;20046;-84
2023/09/06 01:16:49;;;;;;;15.55;11.52;;;19.60;99.90;;;;;;4983284;28;20046;-84
2023/09/06 01:19:18;;;;;;;10.77;7.95;;;19.50;99.90;;;;;;4966620;28;20115;-84
2023/09/06 01:21:58;;;;;;;14.70;11.95;;;19.50;99.90;;;;;;4995941;28;20038;-84
2023/09/06 01:24:25;;;;;;;12.65;9.52;;;19.50;99.90;;;;;;4976232;28;20117;-84
2023/09/06 01:26:52;;;;;;;13.23;11.10;;;19.50;99.90;;;;;;4981167;28;20042;-84
2023/09/06 01:29:18;;;;;;;11.60;9.75;;;19.50;99.90;;;;;;4982421;28;20045;-85
2023/09/06 01:31:44;;;;;;;11.30;8.80;;;19.40;99.90;;;;;;4968798;28;20086;-84
2023/09/06 01:34:09;;;;;;;15.95;10.75;;;19.50;99.90;;;;;;4992983;28;20047;-84
2023/09/06 01:36:35;;;;;;;8.50;6.72;;;19.40;99.90;;;;;;4957814;28;20062;-84
2023/09/06 01:39:01;;;;;;;12.57;10.48;;;19.40;99.90;;;;;;4980000;28;20397;-84
2023/09/06 01:41:27;;;;;;;14.70;11.05;;;19.40;99.90;;;;;;4986048;28;20105;-84
2023/09/06 01:43:54;;;;;;;14.88;10.93;;;19.40;99.90;;;;;;4979831;28;20038;-84
2023/09/06 01:46:20;;;;;;;10.20;8.70;;;19.40;99.90;;;;;;4980391;28;20038;-83
2023/09/06 01:48:46;;;;;;;14.95;10.07;;;19.30;99.90;;;;;;4975651;28;20125;-84
2023/09/06 01:51:15;;;;;;;12.05;9.70;;;19.30;99.90;;;;;;4985148;28;20039;-84
2023/09/06 01:53:41;;;;;;;13.90;9.85;;;19.30;99.90;;;;;;4978887;28;20042;-84
2023/09/06 01:56:07;;;;;;;14.32;11.20;;;19.30;99.90;;;;;;4979417;28;20050;-84
2023/09/06 01:58:34;;;;;;;11.27;8.98;;;19.20;99.90;;;;;;4979252;28;20126;-84
2023/09/06 02:01:00;;;;;;;12.93;9.85;;;19.30;99.90;;;;;;4968599;28;20081;-84
2023/09/06 02:03:29;;;;;;;12.95;9.38;;;19.20;99.90;;;;;;4986970;28;20117;-84
2023/09/06 02:05:55;;;;;;;11.75;9.70;;;19.20;99.90;;;;;;4980271;28;20034;-84
2023/09/06 02:08:21;;;;;;;10.38;8.75;;;19.20;99.90;;;;;;4985019;28;20085;-83
2023/09/06 02:10:47;;;;;;;10.98;9.25;;;19.10;99.90;;;;;;4970698;28;20030;-84
2023/09/06 02:13:13;;;;;;;13.88;9.05;;;19.20;99.90;;;;;;4965825;28;20039;-83
2023/09/06 02:15:38;;;;;;;10.20;7.82;;;19.10;99.90;;;;;;4967616;28;20206;-84
2023/09/06 02:18:05;;;;;;;10.13;8.32;;;19.00;99.90;;;;;;4976580;28;20052;-84
2023/09/06 02:20:30;;;;;;;13.63;9.90;;;19.00;99.90;;;;;;4983604;28;20145;-84
2023/09/06 02:22:56;;;;;;;11.20;9.02;;;19.00;99.90;;;;;;4983722;28;20055;-84
2023/09/06 02:25:25;;;;;;;14.68;9.55;;;19.00;99.90;;;;;;4961263;28;20329;-84
2023/09/06 02:27:52;;;;;;;10.75;9.07;;;19.00;99.90;;;;;;4987058;28;20038;-84
2023/09/06 02:30:19;;;;;;;11.00;8.95;;;19.00;99.90;;;;;;4984550;28;20038;-84
2023/09/06 02:32:45;;;;;;;11.93;8.75;;;18.90;99.90;;;;;;4972716;28;20042;-84
2023/09/06 02:35:11;;;;;;;10.02;8.07;;;18.80;99.90;;;;;;4968568;28;20046;-84
2023/09/06 02:37:36;;;;;;;9.73;8.13;;;18.80;99.90;;;;;;4983049;28;20055;-84
2023/09/06 02:40:07;;;;;;;15.27;7.80;;;18.70;99.90;;;;;;4975986;28;20468;-84
2023/09/06 02:42:36;;;;;;;10.63;8.73;;;18.70;99.90;;;;;;4975162;28;20050;-84
2023/09/06 02:45:04;;;;;;;10.55;7.57;;;18.70;99.90;;;;;;4978538;28;20047;-84
2023/09/06 02:47:30;;;;;;;11.48;8.48;;;18.60;99.90;;;;;;4971392;28;20401;-84
2023/09/06 02:49:56;;;;;;;10.35;8.10;;;18.60;99.90;;;;;;4981866;28;20050;-84
2023/09/06 02:52:30;;;;;;;10.77;7.40;;;18.60;99.90;;;;;;4991864;28;20042;-84
2023/09/06 02:54:57;;;;;;;12.45;8.48;;;18.60;99.90;;;;;;4978406;28;20076;-84
2023/09/06 02:57:24;;;;;;;9.82;8.40;;;18.60;99.90;;;;;;4969859;28;20466;-83
2023/09/06 02:59:51;;;;;;;11.20;7.82;;;18.60;99.90;;;;;;4974716;28;20047;-83
2023/09/06 03:02:18;;;;;;;12.27;7.20;;;18.50;99.90;;;;;;4991644;28;20034;-84
2023/09/06 03:04:44;;;;;;;10.60;9.00;;;18.60;99.90;;;;;;4958466;28;20053;-84
2023/09/06 03:07:09;;;;;;;10.70;8.10;;;18.50;99.90;;;;;;4973412;28;20046;-83
2023/09/06 03:09:38;;;;;;;10.20;7.68;;;18.50;99.90;;;;;;4978360;28;20132;-83
2023/09/06 03:12:14;;;;;;;10.18;8.13;;;18.50;99.90;;;;;;4975547;28;20101;-83
2023/09/06 03:14:44;;;;;;;13.30;9.32;;;18.50;99.90;;;;;;4978169;28;20046;-84
2023/09/06 03:17:14;;;;;;;12.38;8.30;;;18.50;99.90;;;;;;4982048;28;20046;-84
2023/09/06 03:19:41;;;;;;;9.32;6.32;;;18.40;99.90;;;;;;4960170;28;20544;-84
2023/09/06 03:22:12;;;;;;;10.27;7.43;;;18.50;99.90;;;;;;4985083;28;20092;-83
2023/09/06 03:24:40;;;;;;;9.50;8.05;;;18.40;99.90;;;;;;4972371;28;20270;-84
2023/09/06 03:27:15;;;;;;;8.93;7.32;;;18.40;99.90;;;;;;4976697;28;20059;-83
2023/09/06 03:29:40;;;;;;;7.88;6.60;;;18.30;99.90;;;;;;4984627;28;20046;-83
2023/09/06 03:32:09;;;;;;;10.02;6.85;;;18.40;99.90;;;;;;4987436;28;20061;-83
2023/09/06 03:34:40;;;;;;;10.77;7.13;;;18.30;99.90;;;;;;4995188;28;20037;-84
2023/09/06 03:37:08;;;;;;;9.63;7.00;;;18.30;99.90;;;;;;4984571;28;20062;-84
2023/09/06 03:39:43;;;;;;;11.45;7.35;;;18.30;99.90;;;;;;4975387;28;20127;-83
2023/09/06 03:42:10;;;;;;;10.48;7.95;;;18.20;99.90;;;;;;4980480;28;20067;-84
2023/09/06 03:44:36;;;;;;;8.57;6.85;;;18.20;99.90;;;;;;4978243;28;20040;-84
2023/09/06 03:47:05;;;;;;;9.15;7.85;;;18.20;99.90;;;;;;4983911;28;20481;-84
2023/09/06 03:49:35;;;;;;;9.00;7.32;;;18.20;99.90;;;;;;4979046;28;20125;-83
2023/09/06 03:52:04;;;;;;;8.77;6.13;;;18.10;99.90;;;;;;4978861;28;20042;-84
2023/09/06 03:54:30;;;;;;;9.38;6.65;;;18.10;99.90;;;;;;4980387;28;20074;-84
2023/09/06 03:56:55;;;;;;;9.25;7.30;;;18.10;99.90;;;;;;4988437;28;20073;-84
2023/09/06 03:59:21;;;;;;;9.05;4.93;;;18.10;99.90;;;;;;4961996;28;20050;-84
2023/09/06 04:01:47;;;;;;;8.32;6.97;;;18.10;99.90;;;;;;4980692;28;20085;-84
2023/09/06 04:04:13;;;;;;;8.55;7.10;;;18.00;99.90;;;;;;4972115;28;20470;-84
2023/09/06 04:06:43;;;;;;;9.02;6.80;;;18.00;99.90;;;;;;4974250;28;20030;-84
2023/09/06 04:09:13;;;;;;;10.23;7.10;;;18.00;99.90;;;;;;4979933;28;20070;-83
2023/09/06 04:11:40;;;;;;;7.65;5.78;;;17.90;99.90;;;;;;4978622;28;20126;-84
2023/09/06 04:14:05;;;;;;;8.50;7.18;;;17.90;99.90;;;;;;4972634;28;20073;-84
2023/09/06 04:16:33;;;;;;;7.63;6.53;;;17.90;99.90;;;;;;4973345;28;20042;-84
2023/09/06 04:18:58;;;;;;;10.57;7.10;;;17.90;99.90;;;;;;4971037;28;20482;-84
2023/09/06 04:21:24;;;;;;;9.10;7.38;;;17.80;99.90;;;;;;4963694;28;20053;-83
2023/09/06 04:23:49;;;;;;;7.32;5.55;;;17.80;99.90;;;;;;4987124;28;20038;-83
2023/09/06 04:26:15;;;;;;;9.48;5.70;;;17.80;99.90;;;;;;4971551;28;20149;-83
2023/09/06 04:28:41;;;;;;;8.60;6.20;;;17.80;99.90;;;;;;4957800;28;20171;-84
2023/09/06 04:31:17;;;;;;;;;;;17.70;99.90;;;;;;4970703;28;20046;-84
2023/09/06 04:33:44;;;;;;;8.48;6.22;;;17.80;99.90;;;;;;4975543;28;20005;-84
2023/09/06 04:36:10;;;;;;;10.13;7.90;;;17.80;99.90;;;;;;4981278;28;20051;-83
2023/09/06 04:38:36;;;;;;;11.55;8.23;;;17.70;99.90;;;;;;4964934;28;20113;-84
2023/09/06 04:41:02;;;;;;;9.25;7.20;;;17.70;99.90;;;;;;4967226;28;20492;-83
2023/09/06 04:43:28;;;;;;;9.98;7.60;;;17.70;99.90;;;;;;4980356;28;20104;-84
2023/09/06 04:45:54;;;;;;;9.25;6.90;;;17.60;99.90;;;;;;4976317;28;20433;-83
2023/09/06 04:48:23;;;;;;;9.13;6.28;;;17.60;99.90;;;;;;4979586;28;20030;-84
2023/09/06 04:50:50;;;;;;;8.18;5.70;;;17.60;99.90;;;;;;4964008;28;20063;-84
2023/09/06 04:53:18;;;;;;;12.00;7.28;;;17.60;99.90;;;;;;4981955;28;20041;-83
2023/09/06 04:55:44;;;;;;;9.32;6.60;;;17.60;99.90;;;;;;4977263;28;20126;-84
2023/09/06 04:58:11;;;;;;;11.95;7.38;;;17.50;99.90;;;;;;4974083;28;20450;-84
2023/09/06 05:00:43;;;;;;;8.23;5.88;;;17.50;99.90;;;;;;4979208;28;20054;-83
2023/09/06 05:03:12;;;;;;;8.20;6.65;;;17.50;99.90;;;;;;4965229;28;20046;-83
2023/09/06 05:05:39;;;;;;;9.27;6.85;;;17.50;99.90;;;;;;4972766;28;20043;-84
2023/09/06 05:08:06;;;;;;;9.32;5.75;;;17.40;99.90;;;;;;4966188;28;20039;-84
2023/09/06 05:10:32;;;;;;;10.02;7.03;;;17.40;99.90;;;;;;4977995;28;20097;-83
2023/09/06 05:12:58;;;;;;;9.43;7.65;;;17.40;99.90;;;;;;4962983;28;20141;-84
2023/09/06 05:15:24;;;;;;;9.27;6.50;;;17.40;99.90;;;;;;4980418;28;20053;-84
2023/09/06 05:17:50;;;;;;;7.97;6.43;;;17.40;99.90;;;;;;4979579;28;20504;-85
2023/09/06 05:20:32;;;;;;;9.15;6.43;;;17.30;99.90;;;;;;4979584;28;20054;-85
2023/09/06 05:23:08;;;;;;;11.10;7.40;;;17.30;99.90;;;;;;4999144;28;20089;-86
2023/09/06 05:25:34;;;;;;;9.10;6.38;;;17.40;99.90;;;;;;4987717;28;20097;-87
2023/09/06 05:28:11;;;;;;;8.80;7.28;;;17.40;99.90;;;;;;4983506;28;20129;-86
2023/09/06 05:30:40;;;;;;;9.10;6.88;;;17.40;99.90;;;;;;4985620;28;20104;-87
2023/09/06 05:33:07;;;;;;;8.40;6.65;;;17.30;99.90;;;;;;4979419;28;20057;-87
2023/09/06 05:35:34;;;;;;;7.57;5.18;;;17.30;99.90;;;;;;4983804;28;20057;-86
2023/09/06 05:38:01;;;;;;;9.63;6.20;;;17.30;99.90;;;;;;4986365;28;20134;-87
2023/09/06 05:40:29;;;;;;;8.38;6.32;;;17.30;99.90;;;;;;4986944;28;20047;-85
2023/09/06 05:42:55;;;;;;;9.15;6.38;;;17.30;99.90;;;;;;4967446;28;20114;-85
2023/09/06 05:45:24;;;;;;;9.52;6.25;;;17.30;99.90;;;;;;4981172;28;20200;-84
2023/09/06 05:47:50;;;;;;;9.43;6.45;;;17.30;99.90;;;;;;4982327;28;20049;-84
2023/09/06 05:50:16;;;;;;;8.93;6.32;;;17.20;99.90;;;;;;4965442;28;20042;-84
2023/09/06 05:52:42;;;;;;;9.30;6.65;;;17.20;99.90;;;;;;4979360;28;20041;-86
2023/09/06 05:55:10;;;;;;;9.40;5.65;;;17.20;99.90;;;;;;4978802;28;20119;-85
2023/09/06 05:57:36;;;;;;;7.85;5.13;;;17.20;99.90;;;;;;4982155;28;20046;-86
2023/09/06 06:00:03;;;;;;;6.75;4.78;;;17.20;99.90;;;;;;4997926;28;20069;-85
2023/09/06 06:02:31;;;;;;;8.25;5.15;;;17.20;99.90;;;;;;4982537;28;20043;-85
2023/09/06 06:04:57;;;;;;;6.15;4.45;;;17.20;99.90;;;;;;4968797;28;20042;-84
2023/09/06 06:07:23;;;;;;;7.60;4.90;;;17.10;99.90;;;;;;4981738;28;20042;-85
2023/09/06 06:09:48;;;;;;;6.65;3.97;;;17.20;99.90;;;;;;4984858;28;20038;-84
2023/09/06 06:12:15;;;;;;;7.80;6.32;;;17.20;99.90;;;;;;4982983;28;20085;-85
2023/09/06 06:14:41;;;;;;;9.43;6.15;;;17.20;99.90;;;;;;4982652;28;20046;-84
2023/09/06 06:17:09;;;;;;;8.02;5.95;;;17.20;99.90;;;;;;4979876;28;20512;-90
2023/09/06 06:19:35;;;;;;;9.43;6.65;;;17.20;99.90;;;;;;4963828;28;20081;-90
2023/09/06 06:22:04;;;;;;;7.28;5.72;;;17.20;99.90;;;;;;4984405;28;20078;-87
2023/09/06 06:24:33;;;;;;;7.22;4.78;;;17.20;99.90;;;;;;4979832;28;20057;-90
2023/09/06 06:26:59;;;;;;;8.73;5.97;;;17.20;99.90;;;;;;4981386;28;20159;-86
2023/09/06 06:29:24;;;;;;;10.90;6.53;;;17.20;99.90;;;;;;4961850;28;20206;-87
2023/09/06 06:31:50;;;;;;;9.30;6.53;;;17.20;99.90;;;;;;4980024;28;20045;-86
2023/09/06 06:34:18;;;;;;;9.40;6.82;;;17.30;99.90;;;;;;4985519;28;20046;-87
2023/09/06 06:36:47;;;;;;;8.95;6.15;;;17.30;99.90;;;;;;4986274;28;20038;-87
2023/09/06 06:39:13;;;;;;;12.60;7.60;;;17.30;99.90;;;;;;4980301;28;20043;-87
2023/09/06 06:41:40;;;;;;;9.43;6.90;;;17.30;99.90;;;;;;4984472;28;20819;-86
2023/09/06 06:44:06;;;;;;;8.57;6.72;;;17.30;99.90;;;;;;4983026;28;20489;-87
2023/09/06 06:46:39;;;;;;;10.20;6.97;;;17.30;99.90;;;;;;4985981;28;20033;-87
2023/09/06 06:49:07;;;;;;;9.98;7.22;;;17.40;99.90;;;;;;4965411;28;20101;-87
2023/09/06 06:51:36;;;;;;;9.93;7.55;;;17.40;99.90;;;;;;4994538;28;20057;-87
2023/09/06 06:54:06;;;;;;;11.07;7.63;;;17.40;99.90;;;;;;4981825;28;20612;-86
2023/09/06 06:56:32;;;;;;;10.90;8.10;;;17.40;99.90;;;;;;4983744;28;20030;-87
2023/09/06 06:58:58;;;;;;;10.13;7.32;;;17.50;99.90;;;;;;4980775;28;20188;-86
2023/09/06 07:01:24;;;;;;;9.98;6.65;;;17.60;99.90;;;;;;4983301;28;20105;-86
2023/09/06 07:03:50;;;;;;;7.95;6.07;;;17.60;99.90;;;;;;4985350;28;20042;-86
2023/09/06 07:06:16;;;;;;;10.85;6.32;;;17.70;99.90;;;;;;4967894;28;20046;-86
2023/09/06 07:08:42;;;;;;;9.00;6.35;;;17.70;99.90;;;;;;4982165;28;20137;-86
2023/09/06 07:11:07;;;;;;;7.20;5.30;;;17.80;99.90;;;;;;4984555;28;20080;-86
2023/09/06 07:13:34;;;;;;;8.75;5.70;;;17.80;99.90;;;;;;4981381;28;20042;-86
2023/09/06 07:16:00;;;;;;;9.65;5.40;;;17.90;99.90;;;;;;4982496;28;20117;-86
2023/09/06 07:18:27;;;;;;;8.38;4.93;;;18.10;99.90;;;;;;4969402;28;20117;-86
2023/09/06 07:20:53;;;;;;;8.85;4.50;;;18.10;99.90;;;;;;4985814;28;20049;-86
2023/09/06 07:23:19;;;;;;;7.65;4.40;;;18.20;99.90;;;;;;4983250;28;20039;-86
2023/09/06 07:25:47;;;;;;;7.45;4.18;;;18.20;99.90;;;;;;4981355;28;20045;-86
2023/09/06 07:28:14;;;;;;;8.07;4.70;;;18.30;99.90;;;;;;4983337;28;20042;-86
2023/09/06 07:30:41;;;;;;;9.48;5.57;;;18.40;99.90;;;;;;4968830;28;20042;-87
2023/09/06 07:33:07;;;;;;;7.63;4.68;;;18.50;99.90;;;;;;4980412;28;20046;-86
2023/09/06 07:35:33;;;;;;;7.97;3.85;;;18.50;99.90;;;;;;4980211;28;20048;-86
2023/09/06 07:38:00;;;;;;;7.05;3.38;;;18.60;99.90;;;;;;4992958;28;20059;-86
2023/09/06 07:40:26;;;;;;;7.38;3.72;;;18.70;99.90;;;;;;4993360;28;20034;-86
2023/09/06 07:42:53;;;;;;;5.30;3.30;;;18.80;99.90;;;;;;4983708;28;20078;-86
2023/09/06 07:45:19;;;;;;;6.32;3.60;;;18.80;99.90;;;;;;4983960;28;20477;-86
2023/09/06 07:47:44;;;;;;;4.95;3.30;;;18.90;99.90;;;;;;4979654;28;20041;-86
2023/09/06 07:50:10;;;;;;;7.07;3.63;;;19.00;99.90;;;;;;4971061;28;20050;-86
2023/09/06 07:52:39;;;;;;;7.25;3.58;;;19.10;99.90;;;;;;4980932;28;20053;-86
2023/09/06 07:55:06;;;;;;;8.40;3.42;;;19.10;99.90;;;;;;4962091;28;20038;-86
2023/09/06 07:57:31;;;;;;;4.68;3.20;;;19.20;99.90;;;;;;4976258;28;20314;-86
2023/09/06 07:59:57;;;;;;;3.78;2.50;;;19.30;99.90;;;;;;4963735;28;20125;-87
2023/09/06 08:02:23;;;;;;;6.88;3.00;;;19.40;99.90;;;;;;4963488;28;20045;-87
2023/09/06 08:04:50;;;;;;;5.72;2.75;;;19.50;99.90;;;;;;4981256;28;20038;-86
2023/09/06 08:07:16;;;;;;;6.50;3.17;;;19.60;99.90;;;;;;4984102;28;20043;-86
2023/09/06 08:09:42;;;;;;;5.50;2.72;;;19.60;99.90;;;;;;4984522;28;20500;-85
2023/09/06 08:12:08;;;;;;;5.35;2.60;;;19.70;99.90;;;;;;4980921;28;20039;-85
2023/09/06 08:14:36;;;;;;;5.63;2.55;;;19.80;99.90;;;;;;4982828;28;20034;-85
2023/09/06 08:17:02;;;;;;;7.13;2.72;;;19.90;99.90;;;;;;4968884;28;20065;-86
2023/09/06 08:19:28;;;;;;;5.97;3.20;;;20.00;99.90;;;;;;4980976;28;20042;-84
2023/09/06 08:21:53;;;;;;;5.85;3.75;;;20.10;99.90;;;;;;4975348;28;20034;-85
2023/09/06 08:24:19;;;;;;;6.80;3.17;;;20.10;99.90;;;;;;4956296;28;20038;-87
2023/09/06 08:26:50;;;;;;;6.53;3.70;;;20.20;99.90;;;;;;4977586;28;20038;-83
2023/09/06 08:29:16;;;;;;;5.35;2.60;;;20.20;99.90;;;;;;4983768;28;20497;-84
2023/09/06 08:31:41;;;;;;;4.65;3.00;;;20.30;99.90;;;;;;4992322;28;20134;-83
2023/09/06 08:34:09;;;;;;;5.65;2.95;;;20.30;99.90;;;;;;4963191;28;20325;-83
2023/09/06 08:36:35;;;;;;;5.43;2.08;;;20.50;99.90;;;;;;4972728;28;20058;-83
2023/09/06 08:39:01;;;;;;;4.22;2.00;;;20.60;99.90;;;;;;4976559;28;20060;-83
2023/09/06 08:41:29;;;;;;;4.20;1.98;;;20.70;99.90;;;;;;4978743;28;20038;-83
2023/09/06 08:43:55;;;;;;;5.35;2.33;;;20.90;99.90;;;;;;4978112;28;20039;-83
2023/09/06 08:46:29;;;;;;;5.03;2.65;;;21.10;99.90;;;;;;4978155;28;20409;-83
2023/09/06 08:48:56;;;;;;;4.82;2.30;;;21.20;99.90;;;;;;4980495;28;20121;-83
2023/09/06 08:51:22;;;;;;;4.30;2.40;;;21.40;99.90;;;;;;4980883;28;20064;-83
2023/09/06 08:53:48;;;;;;;6.28;2.50;;;21.50;99.90;;;;;;4985417;28;20038;-82
2023/09/06 08:56:17;;;;;;;6.10;2.70;;;21.60;99.90;;;;;;4977438;28;20035;-83
2023/09/06 08:58:44;;;;;;;3.83;2.10;;;21.70;99.90;;;;;;4978377;28;20126;-83
2023/09/06 09:01:10;;;;;;;3.75;2.00;;;21.80;99.90;;;;;;4974788;28;20114;-83
2023/09/06 09:03:35;;;;;;;5.40;1.95;;;22.00;99.90;;;;;;4986141;28;20027;-83
2023/09/06 09:06:09;;;;;;;4.10;1.85;;;22.20;99.90;;;;;;4979300;28;20062;-83
2023/09/06 09:08:35;;;;;;;5.30;1.90;;;22.40;99.90;;;;;;4965477;28;20038;-83
2023/09/06 09:11:12;;;;;;;4.65;1.90;;;22.70;99.90;;;;;;4965712;28;20049;-83
2023/09/06 09:13:39;;;;;;;8.20;2.40;;;22.90;99.90;;;;;;4987417;28;20062;-83
2023/09/06 09:16:09;;;;;;;8.10;2.00;;;23.10;99.90;;;;;;4974632;28;20051;-83
2023/09/06 09:18:37;;;;;;;7.13;1.98;;;23.30;99.90;;;;;;4978689;28;20030;-83
2023/09/06 09:21:03;;;;;;;4.75;1.92;;;23.50;99.90;;;;;;4967501;28;20135;-82
2023/09/06 09:23:31;;;;;;;5.28;2.08;;;23.70;99.90;;;;;;4983756;28;20066;-83
2023/09/06 09:25:57;;;;;;;3.35;1.85;;;23.70;99.90;;;;;;4979351;28;20058;-85
2023/09/06 09:28:23;;;;;;;3.75;2.13;;;23.80;99.90;;;;;;4980636;28;20042;-84
2023/09/06 09:30:50;;;;;;;5.20;2.10;;;24.00;99.90;;;;;;4975383;28;20046;-84
2023/09/06 09:33:16;;;;;;;5.35;2.00;;;24.20;99.90;;;;;;4977121;28;20048;-83
2023/09/06 09:35:44;;;;;;;4.72;2.20;;;24.40;99.90;;;;;;4979549;28;20054;-83
2023/09/06 09:38:10;;;;;;;4.35;1.95;;;24.50;99.90;;;;;;4982176;28;20104;-83
2023/09/06 09:40:37;;;;;;;3.47;1.80;;;24.70;99.90;;;;;;4957046;28;20043;-82
2023/09/06 09:43:04;;;;;;;4.57;1.90;;;24.80;99.90;;;;;;4984232;28;20046;-83
2023/09/06 09:45:43;;;;;;;5.03;2.05;;;24.90;99.90;;;;;;4975705;28;20042;-83
2023/09/06 09:48:09;;;;;;;4.50;1.98;;;25.10;99.90;;;;;;4985230;28;20056;-83
2023/09/06 09:50:41;;;;;;;4.63;2.03;;;25.20;99.90;;;;;;4977913;28;20043;-82
2023/09/06 09:53:08;;;;;;;5.22;1.90;;;25.30;99.90;;;;;;4959708;28;20421;-82
2023/09/06 09:55:40;;;;;;;5.93;1.70;;;25.30;99.90;;;;;;4975298;28;20097;-83
2023/09/06 09:58:09;;;;;;;6.93;2.42;;;25.40;99.90;;;;;;4979684;28;20042;-83
2023/09/06 10:00:39;;;;;;;6.65;1.85;;;25.50;99.90;;;;;;4965641;28;20444;-82
2023/09/06 10:03:05;;;;;;;4.57;1.98;;;25.60;99.90;;;;;;4976278;28;20042;-82
2023/09/06 10:05:35;;;;;;;6.95;1.92;;;25.60;99.90;;;;;;4977176;28;20066;-82
2023/09/06 10:08:04;;;;;;;3.45;1.55;;;25.70;99.90;;;;;;4980142;28;20081;-82
2023/09/06 10:10:30;;;;;;;3.13;1.73;;;25.70;99.90;;;;;;4983778;28;20042;-83
2023/09/06 10:12:57;;;;;;;4.78;1.73;;;25.90;99.90;;;;;;4972816;28;20106;-81
2023/09/06 10:15:23;;;;;;;4.63;1.88;;;26.00;99.90;;;;;;4997286;28;20474;-82
2023/09/06 10:17:55;;;;;;;4.03;2.10;;;26.00;99.90;;;;;;4978981;28;20047;-82
2023/09/06 10:20:26;;;;;;;4.55;1.60;;;26.10;99.90;;;;;;4979969;28;20039;-83
2023/09/06 10:22:55;;;;;;;5.22;1.88;;;26.10;99.90;;;;;;4961382;28;20108;-83
2023/09/06 10:25:21;;;;;;;6.55;1.65;;;26.20;99.90;;;;;;4980825;28;20465;-82
2023/09/06 10:27:55;;;;;;;4.95;1.73;;;26.20;99.90;;;;;;4975673;28;20117;-82
2023/09/06 10:30:46;;;;;;;4.70;1.90;;;26.30;99.90;;;;;;4963121;28;20485;-83
2023/09/06 10:33:37;;;;;;;4.50;1.85;;;26.40;99.90;;;;;;4959149;28;20048;-83
2023/09/06 10:36:08;;;;;;;3.75;1.45;;;26.40;99.90;;;;;;4977666;28;20043;-83
2023/09/06 10:38:58;;;;;;;4.82;1.70;;;26.50;99.90;;;;;;4975162;28;20070;-83
2023/09/06 10:41:25;;;;;;;5.55;2.20;;;26.70;99.90;;;;;;4961597;28;20514;-82
2023/09/06 10:44:03;;;;;;;4.82;1.90;;;26.80;99.90;;;;;;4961738;28;20039;-82
2023/09/06 10:46:36;;;;;;;4.55;1.52;;;27.00;99.90;;;;;;4967545;28;20049;-83
2023/09/06 10:49:23;;;;;;;2.60;1.38;;;27.10;99.90;;;;;;4979357;28;20055;-83
2023/09/06 10:52:00;;;;;;;2.78;1.55;;;27.20;99.90;;;;;;4979238;28;20046;-82
2023/09/06 10:54:35;;;;;;;5.05;1.55;;;27.40;99.90;;;;;;4993541;28;20529;-83
2023/09/06 10:57:03;;;;;;;3.95;2.00;;;27.50;99.90;;;;;;4965008;28;20046;-83
2023/09/06 10:59:29;;;;;;;5.32;2.15;;;27.50;99.90;;;;;;4964517;28;20031;-83
2023/09/06 11:02:18;;;;;;;4.47;1.45;;;27.60;99.90;;;;;;4977925;28;20046;-83
2023/09/06 11:04:44;;;;;;;3.80;1.70;;;27.70;99.90;;;;;;4985049;28;20043;-83
2023/09/06 11:07:10;;;;;;;4.35;1.60;;;27.80;99.90;;;;;;4976845;28;20130;-83
2023/09/06 11:09:43;;;;;;;4.22;1.60;;;27.90;99.90;;;;;;4963498;28;20038;-83
2023/09/06 11:12:11;;;;;;;3.65;1.30;;;28.00;99.90;;;;;;4977534;28;20173;-83
2023/09/06 11:14:37;;;;;;;3.50;1.30;;;28.10;99.90;;;;;;4992490;28;20473;-82
2023/09/06 11:17:03;;;;;;;5.35;1.50;;;28.20;99.90;;;;;;4980576;28;20050;-82
2023/09/06 11:19:29;;;;;;;3.65;1.80;;;28.30;99.90;;;;;;4979844;28;20049;-82
2023/09/06 11:22:09;;;;;;;3.17;1.30;;;28.40;99.90;;;;;;4973160;28;20035;-82
2023/09/06 11:24:36;;;;;;;3.17;1.65;;;28.50;99.90;;;;;;4977595;28;20495;-82
2023/09/06 11:27:22;;;;;;;3.88;1.58;;;28.60;99.90;;;;;;4977510;28;20035;-82
2023/09/06 11:30:09;;;;;;;5.60;1.67;;;28.60;99.90;;;;;;4978566;28;20042;-84
2023/09/06 11:32:35;;;;;;;5.18;1.35;;;28.70;99.90;;;;;;4960121;28;20054;-86
2023/09/06 11:35:03;;;;;;;3.38;1.40;;;28.80;99.90;;;;;;4954545;28;20046;-84
2023/09/06 11:37:30;;;;;;;5.03;1.98;;;28.90;99.90;;;;;;4980434;28;20058;-84
2023/09/06 11:39:57;;;;;;;3.78;1.70;;;29.00;99.70;;;;;;4975755;28;20055;-84
2023/09/06 11:42:24;;;;;;;5.07;1.48;;;29.00;99.80;;;;;;4972797;28;20054;-84
2023/09/06 11:44:53;;;;;;;3.30;1.25;;;29.10;99.60;;;;;;4974450;28;20035;-84
2023/09/06 11:47:23;;;;;;;4.75;1.60;;;29.20;99.60;;;;;;4980726;28;20061;-85
2023/09/06 11:49:49;;;;;;;5.55;1.65;;;29.20;99.10;;;;;;4973267;28;20042;-84
2023/09/06 11:52:18;;;;;;;3.33;1.45;;;29.30;99.10;;;;;;4970071;28;20113;-84
2023/09/06 11:54:49;;;;;;;4.15;1.58;;;29.30;99.70;;;;;;4978071;28;20031;-84
2023/09/06 11:57:30;;;;;;;3.05;1.50;;;29.50;99.60;;;;;;4977086;28;20046;-84
2023/09/06 11:59:57;;;;;;;6.78;1.52;;;29.60;99.60;;;;;;4984104;28;20093;-85
2023/09/06 12:02:31;;;;;;;3.70;1.30;;;29.60;99.20;;;;;;4972943;28;20027;-84
2023/09/06 12:05:03;;;;;;;4.53;1.23;;;29.70;98.50;;;;;;4957862;28;20543;-84
2023/09/06 12:07:31;;;;;;;3.38;1.40;;;29.80;98.10;;;;;;4974763;28;20050;-85
2023/09/06 12:09:57;;;;;;;2.97;1.30;;;29.80;98.10;;;;;;4979779;28;20233;-82
2023/09/06 12:12:24;;;;;;;4.82;1.55;;;29.90;98.10;;;;;;4958565;28;20058;-84
2023/09/06 12:14:50;;;;;;;4.93;1.55;;;29.90;98.20;;;;;;4982444;28;20130;-84
2023/09/06 12:17:18;;;;;;;4.47;1.90;;;30.00;98.20;;;;;;4984900;28;20144;-85
2023/09/06 12:19:44;;;;;;;3.28;1.45;;;30.00;98.00;;;;;;4969738;28;20034;-84
2023/09/06 12:22:14;;;;;;;3.40;1.60;;;29.90;97.70;;;;;;4983355;28;20073;-84
2023/09/06 12:24:45;;;;;;;6.00;1.70;;;30.00;98.20;;;;;;4980406;28;20706;-85
2023/09/06 12:27:20;;;;;;;4.53;1.65;;;30.00;98.30;;;;;;4987204;28;20045;-86
2023/09/06 12:29:45;;;;;;;4.07;1.45;;;30.00;98.60;;;;;;4982074;28;20482;-85
2023/09/06 12:32:11;;;;;;;3.00;1.73;;;30.10;98.60;;;;;;4967267;28;20134;-85
2023/09/06 12:34:37;;;;;;;3.72;1.50;;;30.20;98.40;;;;;;4983670;28;20104;-85
2023/09/06 12:37:03;;;;;;;4.75;1.63;;;30.20;98.30;;;;;;4978434;28;20055;-86
2023/09/06 12:39:28;;;;;;;5.25;1.60;;;30.20;98.30;;;;;;4966186;28;20066;-85
2023/09/06 12:41:55;;;;;;;6.53;1.42;;;30.30;98.70;;;;;;4981342;28;20158;-85
2023/09/06 12:44:20;;;;;;;3.28;1.60;;;30.30;98.30;;;;;;4983753;28;20035;-85
2023/09/06 12:46:47;;;;;;;3.10;1.40;;;30.40;98.50;;;;;;4982566;28;20154;-85
2023/09/06 12:49:13;;;;;;;3.75;1.38;;;30.50;98.50;;;;;;4980835;28;20061;-85